首页
METAR-TAF:

METAR-TAF

机场 :

明斯特奥斯纳布吕克国际机场

明斯特 / 奥斯纳布吕克, 德国

纬度: 52-08N, 经度: 007-42E, 海拔: 48米

当前天气观测

该预报发布于28分钟前的02:20 UTC
风速8节,风向西
温度 9°C
湿度 93%
气压 996 hPa
能见度10公里或以上
散云层高于1100英尺

METAR: EDDG 050220Z 26008KT 9999 SCT011 09/08 Q0996 NOSIG

时间: 04:48 (02:48 UTC)

预报

该预报发布于3小时和48分钟前的23:00 UTC
预报有效从05日的 00点(UTC)到 05日的 24点(UTC)
风速8节,风向西
能见度10公里或以上
多云层高于2000英尺
成为
从 05日的 01点(UTC)到 05日的 04点(UTC)
风速7节,风向南转西南
成为
从 05日的 06点(UTC)到 05日的 09点(UTC)
风速12节,风向南转西南
短暂存在
从 05日的 10点(UTC)到 05日的 16点(UTC)
风速15节,风向南转西南,有时为25节阵风
散云层高于1300英尺
多云层高于2000英尺, 积雨云.
阵雨
几率 30% :
短暂存在
从 05日的 11点(UTC)到 05日的 16点(UTC)
风速20节,风向西,有时为30节阵风
能見度: 4500
雷暴, 雨

TAF: EDDG 042300Z 0500/0524 27008KT 9999 BKN020 BECMG 0501/0504 21007KT BECMG 0506/0509 20012KT TEMPO 0510/0516 21015G25KT SHRA SCT013 BKN020CB PROB30 TEMPO 0511/0516 27020G30KT 4500 TSRA

超过4000个机场的气象观测和天气预报(METAR&TAF报告)。

可查询的气象台以黄色和红色小点在地图上表示。

将鼠标移到小点上方,可查看气象台名称。

然后点击查看天气观测和预报。

如需切换地图:点击带黑十字的绿色按钮放大地图;点击带横线的绿色按钮缩小地图;或者点击绿色箭头查看邻近地区的地图。


METAR-TAF: